sensor_id;sensor_type;location;lat;lon;timestamp;P1;durP1;ratioP1;P2;durP2;ratioP2
8399;SDS011;4237;47.030;15.396;2023-03-01T00:01:49;20.20;;;12.53;;
8399;SDS011;4237;47.030;15.396;2023-03-01T00:04:17;18.23;;;12.67;;
8399;SDS011;4237;47.030;15.396;2023-03-01T00:06:46;21.10;;;13.37;;
8399;SDS011;4237;47.030;15.396;2023-03-01T00:09:15;19.30;;;12.30;;
8399;SDS011;4237;47.030;15.396;2023-03-01T00:11:44;19.20;;;12.67;;
8399;SDS011;4237;47.030;15.396;2023-03-01T00:14:13;20.70;;;12.23;;
8399;SDS011;4237;47.030;15.396;2023-03-01T00:16:44;20.00;;;12.50;;
8399;SDS011;4237;47.030;15.396;2023-03-01T00:19:14;20.17;;;12.77;;
8399;SDS011;4237;47.030;15.396;2023-03-01T00:21:44;18.67;;;12.47;;
8399;SDS011;4237;47.030;15.396;2023-03-01T00:24:13;18.67;;;12.93;;
8399;SDS011;4237;47.030;15.396;2023-03-01T00:26:43;20.77;;;13.13;;
8399;SDS011;4237;47.030;15.396;2023-03-01T00:29:13;21.13;;;13.00;;
8399;SDS011;4237;47.030;15.396;2023-03-01T00:31:41;18.67;;;12.23;;
8399;SDS011;4237;47.030;15.396;2023-03-01T00:34:10;20.43;;;11.80;;
8399;SDS011;4237;47.030;15.396;2023-03-01T00:36:39;16.97;;;12.40;;
8399;SDS011;4237;47.030;15.396;2023-03-01T00:39:10;16.23;;;11.77;;
8399;SDS011;4237;47.030;15.396;2023-03-01T00:41:39;18.00;;;12.53;;
8399;SDS011;4237;47.030;15.396;2023-03-01T00:44:08;21.13;;;13.73;;
8399;SDS011;4237;47.030;15.396;2023-03-01T00:46:37;19.70;;;13.13;;
8399;SDS011;4237;47.030;15.396;2023-03-01T00:49:06;18.77;;;12.60;;
8399;SDS011;4237;47.030;15.396;2023-03-01T00:51:34;21.27;;;13.13;;
8399;SDS011;4237;47.030;15.396;2023-03-01T00:54:03;19.30;;;12.77;;
8399;SDS011;4237;47.030;15.396;2023-03-01T00:56:32;18.23;;;12.30;;
8399;SDS011;4237;47.030;15.396;2023-03-01T00:59:01;17.07;;;11.87;;
8399;SDS011;4237;47.030;15.396;2023-03-01T01:01:30;20.27;;;12.73;;
8399;SDS011;4237;47.030;15.396;2023-03-01T01:04:00;18.53;;;12.40;;
8399;SDS011;4237;47.030;15.396;2023-03-01T01:06:42;20.70;;;12.47;;
8399;SDS011;4237;47.030;15.396;2023-03-01T01:09:14;21.07;;;13.03;;
8399;SDS011;4237;47.030;15.396;2023-03-01T01:11:45;21.13;;;13.43;;
8399;SDS011;4237;47.030;15.396;2023-03-01T01:14:16;23.83;;;15.33;;
8399;SDS011;4237;47.030;15.396;2023-03-01T01:16:46;28.03;;;16.33;;
8399;SDS011;4237;47.030;15.396;2023-03-01T01:19:14;24.00;;;15.67;;
8399;SDS011;4237;47.030;15.396;2023-03-01T01:21:43;27.83;;;18.07;;
8399;SDS011;4237;47.030;15.396;2023-03-01T01:24:13;26.83;;;17.47;;
8399;SDS011;4237;47.030;15.396;2023-03-01T01:26:42;30.10;;;18.40;;
8399;SDS011;4237;47.030;15.396;2023-03-01T01:29:11;29.17;;;17.20;;
8399;SDS011;4237;47.030;15.396;2023-03-01T01:31:41;26.70;;;17.10;;
8399;SDS011;4237;47.030;15.396;2023-03-01T01:34:22;28.37;;;17.20;;
8399;SDS011;4237;47.030;15.396;2023-03-01T01:36:49;31.97;;;16.50;;
8399;SDS011;4237;47.030;15.396;2023-03-01T01:39:20;26.57;;;16.83;;
8399;SDS011;4237;47.030;15.396;2023-03-01T01:41:50;26.93;;;16.87;;
8399;SDS011;4237;47.030;15.396;2023-03-01T01:44:22;26.37;;;17.07;;
8399;SDS011;4237;47.030;15.396;2023-03-01T01:47:00;28.93;;;17.33;;
8399;SDS011;4237;47.030;15.396;2023-03-01T01:49:35;28.50;;;17.60;;
8399;SDS011;4237;47.030;15.396;2023-03-01T01:52:07;32.43;;;17.83;;
8399;SDS011;4237;47.030;15.396;2023-03-01T01:57:09;29.33;;;16.80;;
8399;SDS011;4237;47.030;15.396;2023-03-01T01:59:40;27.53;;;16.63;;
8399;SDS011;4237;47.030;15.396;2023-03-01T02:02:11;31.33;;;17.27;;
8399;SDS011;4237;47.030;15.396;2023-03-01T02:04:40;26.47;;;16.13;;
8399;SDS011;4237;47.030;15.396;2023-03-01T02:07:13;25.43;;;15.30;;
8399;SDS011;4237;47.030;15.396;2023-03-01T02:09:48;26.97;;;16.83;;
8399;SDS011;4237;47.030;15.396;2023-03-01T02:12:20;26.43;;;16.80;;
8399;SDS011;4237;47.030;15.396;2023-03-01T02:14:51;27.53;;;16.77;;
8399;SDS011;4237;47.030;15.396;2023-03-01T02:17:19;26.73;;;17.67;;
8399;SDS011;4237;47.030;15.396;2023-03-01T02:22:40;27.37;;;17.43;;
8399;SDS011;4237;47.030;15.396;2023-03-01T02:30:46;25.20;;;17.00;;
8399;SDS011;4237;47.030;15.396;2023-03-01T02:33:35;26.30;;;15.83;;
8399;SDS011;4237;47.030;15.396;2023-03-01T02:36:08;34.27;;;18.10;;
8399;SDS011;4237;47.030;15.396;2023-03-01T02:38:40;28.83;;;17.53;;
8399;SDS011;4237;47.030;15.396;2023-03-01T02:41:10;31.87;;;18.40;;
8399;SDS011;4237;47.030;15.396;2023-03-01T02:43:41;29.70;;;17.97;;
8399;SDS011;4237;47.030;15.396;2023-03-01T02:46:18;26.63;;;17.03;;
8399;SDS011;4237;47.030;15.396;2023-03-01T02:48:49;31.57;;;16.87;;
8399;SDS011;4237;47.030;15.396;2023-03-01T02:56:48;26.20;;;15.87;;
8399;SDS011;4237;47.030;15.396;2023-03-01T02:59:24;27.17;;;17.27;;
8399;SDS011;4237;47.030;15.396;2023-03-01T03:01:48;24.30;;;15.20;;
8399;SDS011;4237;47.030;15.396;2023-03-01T03:04:18;27.27;;;15.63;;
8399;SDS011;4237;47.030;15.396;2023-03-01T03:06:48;24.60;;;15.33;;
8399;SDS011;4237;47.030;15.396;2023-03-01T03:09:18;24.07;;;15.97;;
8399;SDS011;4237;47.030;15.396;2023-03-01T03:11:47;24.17;;;15.93;;
8399;SDS011;4237;47.030;15.396;2023-03-01T03:14:16;26.50;;;16.23;;
8399;SDS011;4237;47.030;15.396;2023-03-01T03:16:46;33.87;;;17.67;;
8399;SDS011;4237;47.030;15.396;2023-03-01T03:19:18;28.13;;;18.43;;
8399;SDS011;4237;47.030;15.396;2023-03-01T03:21:47;29.03;;;17.87;;
8399;SDS011;4237;47.030;15.396;2023-03-01T03:24:16;27.43;;;16.13;;
8399;SDS011;4237;47.030;15.396;2023-03-01T03:26:45;26.00;;;16.37;;
8399;SDS011;4237;47.030;15.396;2023-03-01T03:29:13;27.13;;;15.93;;
8399;SDS011;4237;47.030;15.396;2023-03-01T03:31:42;26.27;;;16.30;;
8399;SDS011;4237;47.030;15.396;2023-03-01T03:34:11;25.30;;;16.03;;
8399;SDS011;4237;47.030;15.396;2023-03-01T03:36:41;26.10;;;16.03;;
8399;SDS011;4237;47.030;15.396;2023-03-01T03:39:09;24.97;;;15.03;;
8399;SDS011;4237;47.030;15.396;2023-03-01T03:41:38;21.77;;;14.90;;
8399;SDS011;4237;47.030;15.396;2023-03-01T03:44:07;27.60;;;14.53;;
8399;SDS011;4237;47.030;15.396;2023-03-01T03:46:35;22.67;;;15.10;;
8399;SDS011;4237;47.030;15.396;2023-03-01T03:49:04;24.43;;;15.07;;
8399;SDS011;4237;47.030;15.396;2023-03-01T03:51:33;26.10;;;15.37;;
8399;SDS011;4237;47.030;15.396;2023-03-01T03:54:01;27.33;;;15.27;;
8399;SDS011;4237;47.030;15.396;2023-03-01T03:56:30;25.57;;;15.20;;
8399;SDS011;4237;47.030;15.396;2023-03-01T03:58:58;26.27;;;14.67;;
8399;SDS011;4237;47.030;15.396;2023-03-01T04:01:27;21.57;;;13.67;;
8399;SDS011;4237;47.030;15.396;2023-03-01T04:03:56;21.47;;;14.47;;
8399;SDS011;4237;47.030;15.396;2023-03-01T04:06:26;24.70;;;15.10;;
8399;SDS011;4237;47.030;15.396;2023-03-01T04:08:55;26.60;;;14.90;;
8399;SDS011;4237;47.030;15.396;2023-03-01T04:11:25;19.77;;;13.57;;
8399;SDS011;4237;47.030;15.396;2023-03-01T04:13:54;22.80;;;13.90;;
8399;SDS011;4237;47.030;15.396;2023-03-01T04:16:25;23.13;;;14.37;;
8399;SDS011;4237;47.030;15.396;2023-03-01T04:18:54;24.97;;;15.00;;
8399;SDS011;4237;47.030;15.396;2023-03-01T04:21:25;22.93;;;15.03;;
8399;SDS011;4237;47.030;15.396;2023-03-01T04:23:53;36.33;;;21.10;;
8399;SDS011;4237;47.030;15.396;2023-03-01T04:26:22;34.43;;;20.83;;
8399;SDS011;4237;47.030;15.396;2023-03-01T04:28:51;29.63;;;18.40;;
8399;SDS011;4237;47.030;15.396;2023-03-01T04:31:20;22.97;;;16.03;;
8399;SDS011;4237;47.030;15.396;2023-03-01T04:33:50;20.93;;;14.13;;
8399;SDS011;4237;47.030;15.396;2023-03-01T04:36:21;20.73;;;13.53;;
8399;SDS011;4237;47.030;15.396;2023-03-01T04:38:51;25.97;;;14.40;;
8399;SDS011;4237;47.030;15.396;2023-03-01T04:41:22;21.23;;;14.70;;
8399;SDS011;4237;47.030;15.396;2023-03-01T04:43:51;23.83;;;14.60;;
8399;SDS011;4237;47.030;15.396;2023-03-01T04:46:20;23.63;;;13.97;;
8399;SDS011;4237;47.030;15.396;2023-03-01T04:48:49;22.60;;;13.67;;
8399;SDS011;4237;47.030;15.396;2023-03-01T04:51:18;21.27;;;13.83;;
8399;SDS011;4237;47.030;15.396;2023-03-01T04:53:46;22.07;;;13.27;;
8399;SDS011;4237;47.030;15.396;2023-03-01T04:56:15;21.37;;;13.43;;
8399;SDS011;4237;47.030;15.396;2023-03-01T04:58:48;19.60;;;13.53;;
8399;SDS011;4237;47.030;15.396;2023-03-01T05:01:19;21.27;;;14.23;;
8399;SDS011;4237;47.030;15.396;2023-03-01T05:03:50;22.57;;;14.30;;
8399;SDS011;4237;47.030;15.396;2023-03-01T05:06:20;22.27;;;14.50;;
8399;SDS011;4237;47.030;15.396;2023-03-01T05:08:49;20.47;;;13.03;;
8399;SDS011;4237;47.030;15.396;2023-03-01T05:11:18;20.60;;;13.13;;
8399;SDS011;4237;47.030;15.396;2023-03-01T05:13:46;22.83;;;14.77;;
8399;SDS011;4237;47.030;15.396;2023-03-01T05:16:16;26.53;;;16.57;;
8399;SDS011;4237;47.030;15.396;2023-03-01T05:18:46;30.87;;;17.53;;
8399;SDS011;4237;47.030;15.396;2023-03-01T05:21:17;30.07;;;18.67;;
8399;SDS011;4237;47.030;15.396;2023-03-01T05:23:45;32.57;;;19.63;;
8399;SDS011;4237;47.030;15.396;2023-03-01T05:26:15;29.50;;;18.33;;
8399;SDS011;4237;47.030;15.396;2023-03-01T05:28:45;25.83;;;15.73;;
8399;SDS011;4237;47.030;15.396;2023-03-01T05:31:14;22.07;;;12.97;;
8399;SDS011;4237;47.030;15.396;2023-03-01T05:33:42;20.70;;;13.40;;
8399;SDS011;4237;47.030;15.396;2023-03-01T05:36:12;20.53;;;12.37;;
8399;SDS011;4237;47.030;15.396;2023-03-01T05:38:41;19.50;;;12.47;;
8399;SDS011;4237;47.030;15.396;2023-03-01T05:41:14;18.00;;;11.73;;
8399;SDS011;4237;47.030;15.396;2023-03-01T05:43:43;18.57;;;12.17;;
8399;SDS011;4237;47.030;15.396;2023-03-01T05:46:12;20.13;;;13.00;;
8399;SDS011;4237;47.030;15.396;2023-03-01T05:48:42;21.37;;;13.20;;
8399;SDS011;4237;47.030;15.396;2023-03-01T05:51:10;21.47;;;12.93;;
8399;SDS011;4237;47.030;15.396;2023-03-01T05:53:39;21.13;;;13.47;;
8399;SDS011;4237;47.030;15.396;2023-03-01T05:56:08;24.33;;;14.13;;
8399;SDS011;4237;47.030;15.396;2023-03-01T05:58:37;26.50;;;14.77;;
8399;SDS011;4237;47.030;15.396;2023-03-01T06:01:10;26.27;;;17.17;;
8399;SDS011;4237;47.030;15.396;2023-03-01T06:03:38;23.60;;;13.57;;
8399;SDS011;4237;47.030;15.396;2023-03-01T06:06:06;20.80;;;13.43;;
8399;SDS011;4237;47.030;15.396;2023-03-01T06:08:36;22.07;;;13.30;;
8399;SDS011;4237;47.030;15.396;2023-03-01T06:11:04;24.47;;;12.93;;
8399;SDS011;4237;47.030;15.396;2023-03-01T06:13:34;20.57;;;12.83;;
8399;SDS011;4237;47.030;15.396;2023-03-01T06:16:06;18.07;;;11.43;;
8399;SDS011;4237;47.030;15.396;2023-03-01T06:18:36;20.37;;;12.17;;
8399;SDS011;4237;47.030;15.396;2023-03-01T06:21:05;19.37;;;12.00;;
8399;SDS011;4237;47.030;15.396;2023-03-01T06:23:35;19.00;;;12.60;;
8399;SDS011;4237;47.030;15.396;2023-03-01T06:26:05;20.67;;;12.00;;
8399;SDS011;4237;47.030;15.396;2023-03-01T06:28:34;18.53;;;12.27;;
8399;SDS011;4237;47.030;15.396;2023-03-01T06:31:03;18.83;;;11.80;;
8399;SDS011;4237;47.030;15.396;2023-03-01T06:33:34;19.03;;;12.40;;
8399;SDS011;4237;47.030;15.396;2023-03-01T06:36:03;20.80;;;11.97;;
8399;SDS011;4237;47.030;15.396;2023-03-01T06:38:32;15.90;;;10.70;;
8399;SDS011;4237;47.030;15.396;2023-03-01T06:41:01;18.73;;;11.70;;
8399;SDS011;4237;47.030;15.396;2023-03-01T06:43:29;19.93;;;12.47;;
8399;SDS011;4237;47.030;15.396;2023-03-01T06:45:58;18.33;;;11.53;;
8399;SDS011;4237;47.030;15.396;2023-03-01T06:48:27;25.80;;;12.50;;
8399;SDS011;4237;47.030;15.396;2023-03-01T06:50:58;24.50;;;12.27;;
8399;SDS011;4237;47.030;15.396;2023-03-01T06:53:27;20.27;;;11.53;;
8399;SDS011;4237;47.030;15.396;2023-03-01T06:55:57;24.30;;;12.17;;
8399;SDS011;4237;47.030;15.396;2023-03-01T06:58:28;17.07;;;11.03;;
8399;SDS011;4237;47.030;15.396;2023-03-01T07:00:57;19.87;;;12.03;;
8399;SDS011;4237;47.030;15.396;2023-03-01T07:03:25;16.23;;;11.70;;
8399;SDS011;4237;47.030;15.396;2023-03-01T07:05:54;16.10;;;11.30;;
8399;SDS011;4237;47.030;15.396;2023-03-01T07:08:22;21.47;;;12.50;;
8399;SDS011;4237;47.030;15.396;2023-03-01T07:10:54;21.83;;;12.53;;
8399;SDS011;4237;47.030;15.396;2023-03-01T07:13:24;20.23;;;12.40;;
8399;SDS011;4237;47.030;15.396;2023-03-01T07:15:53;18.10;;;11.73;;
8399;SDS011;4237;47.030;15.396;2023-03-01T07:18:22;19.83;;;12.30;;
8399;SDS011;4237;47.030;15.396;2023-03-01T07:20:50;17.87;;;11.00;;
8399;SDS011;4237;47.030;15.396;2023-03-01T07:23:19;19.17;;;11.30;;
8399;SDS011;4237;47.030;15.396;2023-03-01T07:25:54;18.57;;;10.47;;
8399;SDS011;4237;47.030;15.396;2023-03-01T07:28:23;17.27;;;11.07;;
8399;SDS011;4237;47.030;15.396;2023-03-01T07:30:52;18.80;;;11.33;;
8399;SDS011;4237;47.030;15.396;2023-03-01T07:33:21;18.50;;;12.20;;
8399;SDS011;4237;47.030;15.396;2023-03-01T07:35:55;17.03;;;12.53;;
8399;SDS011;4237;47.030;15.396;2023-03-01T07:38:21;18.10;;;12.20;;
8399;SDS011;4237;47.030;15.396;2023-03-01T07:40:50;16.13;;;10.93;;
8399;SDS011;4237;47.030;15.396;2023-03-01T07:43:18;18.80;;;12.10;;
8399;SDS011;4237;47.030;15.396;2023-03-01T07:45:47;18.67;;;11.57;;
8399;SDS011;4237;47.030;15.396;2023-03-01T07:48:16;18.97;;;11.73;;
8399;SDS011;4237;47.030;15.396;2023-03-01T07:50:45;18.07;;;11.47;;
8399;SDS011;4237;47.030;15.396;2023-03-01T07:53:14;18.63;;;12.20;;
8399;SDS011;4237;47.030;15.396;2023-03-01T07:55:42;18.00;;;12.47;;
8399;SDS011;4237;47.030;15.396;2023-03-01T07:58:11;21.43;;;11.40;;
8399;SDS011;4237;47.030;15.396;2023-03-01T08:00:39;16.60;;;10.60;;
8399;SDS011;4237;47.030;15.396;2023-03-01T08:03:08;14.83;;;11.07;;
8399;SDS011;4237;47.030;15.396;2023-03-01T08:05:37;15.93;;;11.30;;
8399;SDS011;4237;47.030;15.396;2023-03-01T08:08:05;16.97;;;11.77;;
8399;SDS011;4237;47.030;15.396;2023-03-01T08:10:34;30.40;;;15.90;;
8399;SDS011;4237;47.030;15.396;2023-03-01T08:13:03;23.53;;;14.43;;
8399;SDS011;4237;47.030;15.396;2023-03-01T08:15:32;52.67;;;23.47;;
8399;SDS011;4237;47.030;15.396;2023-03-01T08:18:00;37.13;;;18.30;;
8399;SDS011;4237;47.030;15.396;2023-03-01T08:20:29;19.20;;;12.20;;
8399;SDS011;4237;47.030;15.396;2023-03-01T08:22:58;29.47;;;15.33;;
8399;SDS011;4237;47.030;15.396;2023-03-01T08:25:26;17.73;;;12.17;;
8399;SDS011;4237;47.030;15.396;2023-03-01T08:27:55;16.57;;;12.20;;
8399;SDS011;4237;47.030;15.396;2023-03-01T08:30:24;17.90;;;12.93;;
8399;SDS011;4237;47.030;15.396;2023-03-01T08:32:52;20.17;;;12.30;;
8399;SDS011;4237;47.030;15.396;2023-03-01T08:35:21;19.73;;;13.23;;
8399;SDS011;4237;47.030;15.396;2023-03-01T08:37:50;16.13;;;11.90;;
8399;SDS011;4237;47.030;15.396;2023-03-01T08:40:19;18.23;;;12.37;;
8399;SDS011;4237;47.030;15.396;2023-03-01T08:42:48;19.63;;;12.87;;
8399;SDS011;4237;47.030;15.396;2023-03-01T08:45:16;19.47;;;13.03;;
8399;SDS011;4237;47.030;15.396;2023-03-01T08:47:46;18.30;;;12.27;;
8399;SDS011;4237;47.030;15.396;2023-03-01T08:50:15;20.30;;;13.47;;
8399;SDS011;4237;47.030;15.396;2023-03-01T08:52:44;18.83;;;13.00;;
8399;SDS011;4237;47.030;15.396;2023-03-01T08:55:13;19.53;;;12.47;;
8399;SDS011;4237;47.030;15.396;2023-03-01T08:57:43;23.63;;;13.50;;
8399;SDS011;4237;47.030;15.396;2023-03-01T09:00:12;19.63;;;13.43;;
8399;SDS011;4237;47.030;15.396;2023-03-01T09:02:41;18.07;;;12.33;;
8399;SDS011;4237;47.030;15.396;2023-03-01T09:05:10;20.63;;;12.83;;
8399;SDS011;4237;47.030;15.396;2023-03-01T09:07:38;21.23;;;12.77;;
8399;SDS011;4237;47.030;15.396;2023-03-01T09:10:07;17.97;;;12.77;;
8399;SDS011;4237;47.030;15.396;2023-03-01T09:12:37;17.57;;;12.70;;
8399;SDS011;4237;47.030;15.396;2023-03-01T09:15:06;20.70;;;13.73;;
8399;SDS011;4237;47.030;15.396;2023-03-01T09:17:36;17.30;;;12.70;;
8399;SDS011;4237;47.030;15.396;2023-03-01T09:20:05;17.17;;;12.63;;
8399;SDS011;4237;47.030;15.396;2023-03-01T09:22:34;21.93;;;12.40;;
8399;SDS011;4237;47.030;15.396;2023-03-01T09:25:03;14.10;;;11.40;;
8399;SDS011;4237;47.030;15.396;2023-03-01T09:27:32;16.60;;;12.13;;
8399;SDS011;4237;47.030;15.396;2023-03-01T09:30:01;17.47;;;12.67;;
8399;SDS011;4237;47.030;15.396;2023-03-01T09:32:31;19.97;;;12.37;;
8399;SDS011;4237;47.030;15.396;2023-03-01T09:35:00;17.50;;;12.47;;
8399;SDS011;4237;47.030;15.396;2023-03-01T09:37:31;20.87;;;12.97;;
8399;SDS011;4237;47.030;15.396;2023-03-01T09:40:01;18.60;;;13.13;;
8399;SDS011;4237;47.030;15.396;2023-03-01T09:42:32;21.30;;;13.53;;
8399;SDS011;4237;47.030;15.396;2023-03-01T09:45:10;18.43;;;12.50;;
8399;SDS011;4237;47.030;15.396;2023-03-01T09:47:35;16.17;;;11.93;;
8399;SDS011;4237;47.030;15.396;2023-03-01T09:50:05;16.17;;;12.13;;
8399;SDS011;4237;47.030;15.396;2023-03-01T09:52:43;17.00;;;11.47;;
8399;SDS011;4237;47.030;15.396;2023-03-01T09:58:41;16.57;;;11.67;;
8399;SDS011;4237;47.030;15.396;2023-03-01T10:09:50;17.27;;;12.00;;
8399;SDS011;4237;47.030;15.396;2023-03-01T10:12:23;19.07;;;12.57;;
8399;SDS011;4237;47.030;15.396;2023-03-01T10:15:07;18.87;;;12.30;;
8399;SDS011;4237;47.030;15.396;2023-03-01T10:17:46;17.23;;;12.57;;
8399;SDS011;4237;47.030;15.396;2023-03-01T10:20:20;23.77;;;12.30;;
8399;SDS011;4237;47.030;15.396;2023-03-01T10:22:50;18.53;;;12.93;;
8399;SDS011;4237;47.030;15.396;2023-03-01T10:25:23;18.40;;;12.47;;
8399;SDS011;4237;47.030;15.396;2023-03-01T10:27:53;17.17;;;12.00;;
8399;SDS011;4237;47.030;15.396;2023-03-01T10:33:02;17.57;;;12.63;;
8399;SDS011;4237;47.030;15.396;2023-03-01T10:35:33;17.93;;;12.33;;
8399;SDS011;4237;47.030;15.396;2023-03-01T10:38:04;24.77;;;13.07;;
8399;SDS011;4237;47.030;15.396;2023-03-01T10:40:35;19.57;;;12.97;;
8399;SDS011;4237;47.030;15.396;2023-03-01T10:43:05;17.57;;;11.60;;
8399;SDS011;4237;47.030;15.396;2023-03-01T10:45:36;19.83;;;12.63;;
8399;SDS011;4237;47.030;15.396;2023-03-01T10:48:16;19.83;;;12.87;;
8399;SDS011;4237;47.030;15.396;2023-03-01T10:53:34;20.10;;;13.27;;
8399;SDS011;4237;47.030;15.396;2023-03-01T10:56:06;21.27;;;13.03;;
8399;SDS011;4237;47.030;15.396;2023-03-01T10:58:38;19.97;;;13.33;;
8399;SDS011;4237;47.030;15.396;2023-03-01T11:06:40;20.73;;;13.00;;
8399;SDS011;4237;47.030;15.396;2023-03-01T11:11:55;18.03;;;12.67;;
8399;SDS011;4237;47.030;15.396;2023-03-01T11:14:24;20.30;;;12.87;;
8399;SDS011;4237;47.030;15.396;2023-03-01T11:17:05;20.30;;;12.77;;
8399;SDS011;4237;47.030;15.396;2023-03-01T11:19:35;19.17;;;12.43;;
8399;SDS011;4237;47.030;15.396;2023-03-01T11:22:06;22.17;;;14.80;;
8399;SDS011;4237;47.030;15.396;2023-03-01T11:24:43;26.00;;;14.17;;
8399;SDS011;4237;47.030;15.396;2023-03-01T11:30:02;21.27;;;13.87;;
8399;SDS011;4237;47.030;15.396;2023-03-01T11:32:39;20.30;;;12.20;;
8399;SDS011;4237;47.030;15.396;2023-03-01T11:35:10;19.83;;;12.37;;
8399;SDS011;4237;47.030;15.396;2023-03-01T11:37:56;19.60;;;12.40;;
8399;SDS011;4237;47.030;15.396;2023-03-01T11:40:35;18.83;;;12.60;;
8399;SDS011;4237;47.030;15.396;2023-03-01T11:43:26;19.97;;;13.13;;
8399;SDS011;4237;47.030;15.396;2023-03-01T11:49:26;18.63;;;12.67;;
8399;SDS011;4237;47.030;15.396;2023-03-01T11:52:08;18.60;;;12.50;;
8399;SDS011;4237;47.030;15.396;2023-03-01T11:57:51;20.27;;;13.10;;
8399;SDS011;4237;47.030;15.396;2023-03-01T12:06:12;17.50;;;12.30;;
8399;SDS011;4237;47.030;15.396;2023-03-01T12:27:37;19.30;;;12.40;;
8399;SDS011;4237;47.030;15.396;2023-03-01T12:36:03;18.97;;;12.70;;
8399;SDS011;4237;47.030;15.396;2023-03-01T12:41:27;18.00;;;12.80;;
8399;SDS011;4237;47.030;15.396;2023-03-01T12:49:31;19.03;;;12.17;;
8399;SDS011;4237;47.030;15.396;2023-03-01T12:52:03;16.27;;;11.80;;
8399;SDS011;4237;47.030;15.396;2023-03-01T12:54:35;17.87;;;11.50;;
8399;SDS011;4237;47.030;15.396;2023-03-01T13:00:15;19.67;;;11.53;;
8399;SDS011;4237;47.030;15.396;2023-03-01T13:02:45;16.10;;;11.00;;
8399;SDS011;4237;47.030;15.396;2023-03-01T13:05:39;19.27;;;11.23;;
8399;SDS011;4237;47.030;15.396;2023-03-01T13:08:16;14.43;;;10.77;;
8399;SDS011;4237;47.030;15.396;2023-03-01T13:10:50;17.00;;;10.53;;
8399;SDS011;4237;47.030;15.396;2023-03-01T13:13:30;16.53;;;10.70;;
8399;SDS011;4237;47.030;15.396;2023-03-01T13:16:19;21.37;;;11.30;;
8399;SDS011;4237;47.030;15.396;2023-03-01T13:18:47;23.93;;;11.40;;
8399;SDS011;4237;47.030;15.396;2023-03-01T13:21:28;15.97;;;10.73;;
8399;SDS011;4237;47.030;15.396;2023-03-01T13:23:47;15.07;;;10.57;;
8399;SDS011;4237;47.030;15.396;2023-03-01T13:26:17;21.97;;;13.43;;
8399;SDS011;4237;47.030;15.396;2023-03-01T13:28:50;19.43;;;11.07;;
8399;SDS011;4237;47.030;15.396;2023-03-01T13:33:57;16.23;;;10.70;;
8399;SDS011;4237;47.030;15.396;2023-03-01T13:39:02;19.33;;;11.33;;
8399;SDS011;4237;47.030;15.396;2023-03-01T13:44:13;14.17;;;10.30;;
8399;SDS011;4237;47.030;15.396;2023-03-01T13:46:52;16.50;;;10.73;;
8399;SDS011;4237;47.030;15.396;2023-03-01T13:49:41;12.87;;;9.53;;
8399;SDS011;4237;47.030;15.396;2023-03-01T13:51:55;14.17;;;9.93;;
8399;SDS011;4237;47.030;15.396;2023-03-01T13:54:29;12.63;;;9.67;;
8399;SDS011;4237;47.030;15.396;2023-03-01T13:57:00;16.80;;;10.80;;
8399;SDS011;4237;47.030;15.396;2023-03-01T13:59:29;14.13;;;10.10;;
8399;SDS011;4237;47.030;15.396;2023-03-01T14:01:59;16.27;;;10.53;;
8399;SDS011;4237;47.030;15.396;2023-03-01T14:04:29;12.53;;;9.13;;
8399;SDS011;4237;47.030;15.396;2023-03-01T14:09:49;14.57;;;9.07;;
8399;SDS011;4237;47.030;15.396;2023-03-01T14:12:44;13.30;;;9.10;;
8399;SDS011;4237;47.030;15.396;2023-03-01T14:15:28;12.83;;;8.93;;
8399;SDS011;4237;47.030;15.396;2023-03-01T14:20:48;12.93;;;8.77;;
8399;SDS011;4237;47.030;15.396;2023-03-01T14:23:18;11.53;;;8.67;;
8399;SDS011;4237;47.030;15.396;2023-03-01T14:25:51;10.70;;;8.50;;
8399;SDS011;4237;47.030;15.396;2023-03-01T14:28:28;13.47;;;8.30;;
8399;SDS011;4237;47.030;15.396;2023-03-01T14:31:00;13.53;;;8.83;;
8399;SDS011;4237;47.030;15.396;2023-03-01T14:33:30;11.57;;;8.73;;
8399;SDS011;4237;47.030;15.396;2023-03-01T14:38:37;13.63;;;9.47;;
8399;SDS011;4237;47.030;15.396;2023-03-01T14:41:24;15.70;;;10.17;;
8399;SDS011;4237;47.030;15.396;2023-03-01T14:43:57;15.07;;;9.67;;
8399;SDS011;4237;47.030;15.396;2023-03-01T14:46:41;15.50;;;9.47;;
8399;SDS011;4237;47.030;15.396;2023-03-01T14:51:53;17.10;;;10.77;;
8399;SDS011;4237;47.030;15.396;2023-03-01T14:54:37;29.73;;;17.37;;
8399;SDS011;4237;47.030;15.396;2023-03-01T14:57:16;18.73;;;11.70;;
8399;SDS011;4237;47.030;15.396;2023-03-01T14:59:49;16.27;;;10.33;;
8399;SDS011;4237;47.030;15.396;2023-03-01T15:02:22;17.03;;;10.70;;
8399;SDS011;4237;47.030;15.396;2023-03-01T15:04:54;16.87;;;11.40;;
8399;SDS011;4237;47.030;15.396;2023-03-01T15:07:28;15.27;;;10.03;;
8399;SDS011;4237;47.030;15.396;2023-03-01T15:10:02;18.30;;;10.70;;
8399;SDS011;4237;47.030;15.396;2023-03-01T15:12:36;17.87;;;11.30;;
8399;SDS011;4237;47.030;15.396;2023-03-01T15:15:19;17.40;;;11.13;;
8399;SDS011;4237;47.030;15.396;2023-03-01T15:17:56;15.33;;;10.67;;
8399;SDS011;4237;47.030;15.396;2023-03-01T15:20:26;22.23;;;11.80;;
8399;SDS011;4237;47.030;15.396;2023-03-01T15:22:56;15.87;;;10.63;;
8399;SDS011;4237;47.030;15.396;2023-03-01T15:25:27;15.60;;;10.37;;
8399;SDS011;4237;47.030;15.396;2023-03-01T15:27:57;16.70;;;10.43;;
8399;SDS011;4237;47.030;15.396;2023-03-01T15:30:32;15.87;;;11.10;;
8399;SDS011;4237;47.030;15.396;2023-03-01T15:33:17;15.50;;;9.63;;
8399;SDS011;4237;47.030;15.396;2023-03-01T15:35:55;15.77;;;10.57;;
8399;SDS011;4237;47.030;15.396;2023-03-01T15:38:27;19.70;;;11.00;;
8399;SDS011;4237;47.030;15.396;2023-03-01T15:41:05;16.27;;;10.23;;
8399;SDS011;4237;47.030;15.396;2023-03-01T15:43:45;17.17;;;10.10;;
8399;SDS011;4237;47.030;15.396;2023-03-01T15:48:53;17.23;;;10.07;;
8399;SDS011;4237;47.030;15.396;2023-03-01T15:51:27;15.17;;;9.93;;
8399;SDS011;4237;47.030;15.396;2023-03-01T15:53:58;14.93;;;10.13;;
8399;SDS011;4237;47.030;15.396;2023-03-01T15:56:29;15.93;;;9.97;;
8399;SDS011;4237;47.030;15.396;2023-03-01T15:59:03;20.03;;;11.43;;
8399;SDS011;4237;47.030;15.396;2023-03-01T16:01:29;26.27;;;14.00;;
8399;SDS011;4237;47.030;15.396;2023-03-01T16:03:59;24.17;;;13.03;;
8399;SDS011;4237;47.030;15.396;2023-03-01T16:06:28;23.23;;;12.97;;
8399;SDS011;4237;47.030;15.396;2023-03-01T16:08:57;20.93;;;12.40;;
8399;SDS011;4237;47.030;15.396;2023-03-01T16:11:25;18.00;;;11.43;;
8399;SDS011;4237;47.030;15.396;2023-03-01T16:13:55;17.90;;;11.47;;
8399;SDS011;4237;47.030;15.396;2023-03-01T16:16:24;20.63;;;11.57;;
8399;SDS011;4237;47.030;15.396;2023-03-01T16:18:53;19.27;;;12.27;;
8399;SDS011;4237;47.030;15.396;2023-03-01T16:21:23;17.33;;;11.50;;
8399;SDS011;4237;47.030;15.396;2023-03-01T16:23:52;22.27;;;11.93;;
8399;SDS011;4237;47.030;15.396;2023-03-01T16:26:21;20.83;;;12.10;;
8399;SDS011;4237;47.030;15.396;2023-03-01T16:28:50;19.07;;;12.07;;
8399;SDS011;4237;47.030;15.396;2023-03-01T16:31:20;19.33;;;11.97;;
8399;SDS011;4237;47.030;15.396;2023-03-01T16:33:49;17.13;;;11.77;;
8399;SDS011;4237;47.030;15.396;2023-03-01T16:36:20;18.53;;;12.43;;
8399;SDS011;4237;47.030;15.396;2023-03-01T16:38:51;21.60;;;13.60;;
8399;SDS011;4237;47.030;15.396;2023-03-01T16:41:21;25.20;;;15.83;;
8399;SDS011;4237;47.030;15.396;2023-03-01T16:43:51;27.13;;;16.87;;
8399;SDS011;4237;47.030;15.396;2023-03-01T16:46:22;28.03;;;16.53;;
8399;SDS011;4237;47.030;15.396;2023-03-01T16:48:53;27.87;;;16.27;;
8399;SDS011;4237;47.030;15.396;2023-03-01T16:51:22;23.30;;;14.67;;
8399;SDS011;4237;47.030;15.396;2023-03-01T16:53:52;29.60;;;16.60;;